createdAt,value
2023-02-24T00:00:37.954Z,24.10
2023-02-24T00:03:08.639Z,25.13
2023-02-24T00:05:39.231Z,24.35
2023-02-24T00:08:08.612Z,21.90
2023-02-24T00:10:37.757Z,21.33
2023-02-24T00:13:06.016Z,22.85
2023-02-24T00:15:34.037Z,20.33
2023-02-24T00:18:07.285Z,20.65
2023-02-24T00:20:36.319Z,21.38
2023-02-24T00:23:04.833Z,25.13
2023-02-24T00:25:34.258Z,22.48
2023-02-24T00:28:02.397Z,18.30
2023-02-24T00:30:33.034Z,21.98
2023-02-24T00:33:03.500Z,21.42
2023-02-24T00:35:32.345Z,19.33
2023-02-24T00:38:00.951Z,20.50
2023-02-24T00:40:30.827Z,21.20
2023-02-24T00:43:02.375Z,21.65
2023-02-24T00:45:33.855Z,20.08
2023-02-24T00:48:04.755Z,20.55
2023-02-24T00:50:33.338Z,22.00
2023-02-24T00:53:01.356Z,22.45
2023-02-24T00:55:36.434Z,22.08
2023-02-24T00:58:07.513Z,21.05
2023-02-24T01:00:37.251Z,21.23
2023-02-24T01:03:06.199Z,22.15
2023-02-24T01:05:37.442Z,20.27
2023-02-24T01:08:05.365Z,21.63
2023-02-24T01:10:34.463Z,21.70
2023-02-24T01:13:01.594Z,22.77
2023-02-24T01:15:31.285Z,24.33
2023-02-24T01:17:59.216Z,22.25
2023-02-24T01:20:30.568Z,24.75
2023-02-24T01:22:58.879Z,21.83
2023-02-24T01:25:31.320Z,22.08
2023-02-24T01:27:59.519Z,21.65
2023-02-24T01:30:28.550Z,23.05
2023-02-24T01:33:00.479Z,25.00
2023-02-24T01:35:31.729Z,23.17
2023-02-24T01:38:01.678Z,23.45
2023-02-24T01:40:29.718Z,21.63
2023-02-24T01:42:57.806Z,21.35
2023-02-24T01:45:29.438Z,22.08
2023-02-24T01:48:05.292Z,23.40
2023-02-24T01:50:36.078Z,21.42
2023-02-24T01:53:08.576Z,24.27
2023-02-24T01:55:42.904Z,26.27
2023-02-24T01:58:22.192Z,22.45
2023-02-24T02:00:51.638Z,23.92
2023-02-24T02:03:27.246Z,25.77
2023-02-24T02:06:01.652Z,26.17
2023-02-24T02:08:30.313Z,27.90
2023-02-24T02:11:02.592Z,28.58
2023-02-24T02:13:38.068Z,26.95
2023-02-24T02:16:37.722Z,28.33
2023-02-24T02:19:33.903Z,26.45
2023-02-24T02:22:07.298Z,27.40
2023-02-24T02:24:51.518Z,26.65
2023-02-24T02:27:48.084Z,24.27
2023-02-24T02:30:46.579Z,26.80
2023-02-24T02:33:55.708Z,23.48
2023-02-24T02:36:31.687Z,24.63
2023-02-24T02:39:12.029Z,27.48
2023-02-24T02:41:50.282Z,26.73
2023-02-24T02:44:25.757Z,28.88
2023-02-24T02:47:01.692Z,30.52
2023-02-24T02:49:37.207Z,29.88
2023-02-24T02:52:13.841Z,37.35
2023-02-24T02:54:49.753Z,30.27
2023-02-24T02:57:21.528Z,28.45
2023-02-24T02:59:57.778Z,33.22
2023-02-24T03:02:31.322Z,29.27
2023-02-24T03:05:05.186Z,33.75
2023-02-24T03:07:37.737Z,27.90
2023-02-24T03:10:17.851Z,29.70
2023-02-24T03:12:48.913Z,34.20
2023-02-24T03:15:21.473Z,33.47
2023-02-24T03:17:56.695Z,34.80
2023-02-24T03:20:32.729Z,35.75
2023-02-24T03:23:06.212Z,30.13
2023-02-24T03:25:39.681Z,28.50
2023-02-24T03:28:17.640Z,32.20
2023-02-24T03:30:52.402Z,36.20
2023-02-24T03:33:26.594Z,39.28
2023-02-24T03:36:02.097Z,39.03
2023-02-24T03:38:34.344Z,41.10
2023-02-24T03:41:02.842Z,36.38
2023-02-24T03:43:36.081Z,35.35
2023-02-24T03:46:07.018Z,34.70
2023-02-24T03:48:39.430Z,33.72
2023-02-24T03:51:16.006Z,33.67
2023-02-24T03:54:11.067Z,32.47
2023-02-24T03:56:57.887Z,39.47
2023-02-24T03:59:40.674Z,38.83
2023-02-24T04:02:16.200Z,33.38
2023-02-24T04:04:55.515Z,35.42
2023-02-24T04:07:52.266Z,34.63
2023-02-24T04:10:27.479Z,41.53
2023-02-24T04:13:02.271Z,42.92
2023-02-24T04:15:37.709Z,33.85
2023-02-24T04:18:12.596Z,38.63
2023-02-24T04:20:42.801Z,35.33
2023-02-24T04:23:17.279Z,35.30
2023-02-24T04:25:51.482Z,39.05
2023-02-24T04:28:22.072Z,30.02
2023-02-24T04:30:53.159Z,31.88
2023-02-24T04:33:25.697Z,33.97
2023-02-24T04:35:55.008Z,36.97
2023-02-24T04:38:25.133Z,37.20
2023-02-24T04:40:55.559Z,33.38
2023-02-24T04:43:23.662Z,41.22
2023-02-24T04:45:52.633Z,44.40
2023-02-24T04:48:20.866Z,39.97
2023-02-24T04:50:55.034Z,35.97
2023-02-24T04:53:27.142Z,38.55
2023-02-24T04:55:56.319Z,48.75
2023-02-24T04:58:28.022Z,45.40
2023-02-24T05:00:56.746Z,44.42
2023-02-24T05:03:28.684Z,40.75
2023-02-24T05:06:00.342Z,43.38
2023-02-24T05:08:32.066Z,37.63
2023-02-24T05:11:03.897Z,35.42
2023-02-24T05:13:37.725Z,49.00
2023-02-24T05:16:08.320Z,44.45
2023-02-24T05:18:37.365Z,42.00
2023-02-24T05:21:26.212Z,47.13
2023-02-24T05:23:58.487Z,52.65
2023-02-24T05:26:27.738Z,51.25
2023-02-24T05:28:59.688Z,45.92
2023-02-24T05:31:29.642Z,43.50
2023-02-24T05:34:01.466Z,47.05
2023-02-24T05:36:33.026Z,51.88
2023-02-24T05:39:07.444Z,54.90
2023-02-24T05:41:38.989Z,54.70
2023-02-24T05:44:09.606Z,45.55
2023-02-24T05:46:39.994Z,40.50
2023-02-24T05:49:14.358Z,44.08
2023-02-24T05:51:54.869Z,43.70
2023-02-24T05:54:29.344Z,37.83
2023-02-24T05:57:00.368Z,38.33
2023-02-24T05:59:32.839Z,35.58
2023-02-24T06:02:07.058Z,39.58
2023-02-24T06:04:46.531Z,34.70
2023-02-24T06:07:19.509Z,41.30
2023-02-24T06:09:50.868Z,38.10
2023-02-24T06:12:19.971Z,37.38
2023-02-24T06:14:48.445Z,39.03
2023-02-24T06:17:18.776Z,40.42
2023-02-24T06:19:48.136Z,36.33
2023-02-24T06:22:19.147Z,37.40
2023-02-24T06:24:49.934Z,38.10
2023-02-24T06:27:21.454Z,34.00
2023-02-24T06:29:51.239Z,41.25
2023-02-24T06:32:19.847Z,39.00
2023-02-24T06:34:48.297Z,41.35
2023-02-24T06:37:18.462Z,43.50
2023-02-24T06:39:47.392Z,37.45
2023-02-24T06:42:16.942Z,43.17
2023-02-24T06:44:45.377Z,37.78
2023-02-24T06:47:16.281Z,38.75
2023-02-24T06:49:44.747Z,42.10
2023-02-24T06:52:18.541Z,42.88
2023-02-24T06:54:49.601Z,41.60
2023-02-24T06:57:20.478Z,38.00
2023-02-24T06:59:49.142Z,45.13
2023-02-24T07:02:18.670Z,37.45
2023-02-24T07:04:47.800Z,31.58
2023-02-24T07:07:17.404Z,33.47
2023-02-24T07:09:46.019Z,33.85
2023-02-24T07:12:15.635Z,33.08
2023-02-24T07:14:47.155Z,32.17
2023-02-24T07:17:19.171Z,29.70
2023-02-24T07:19:47.498Z,33.88
2023-02-24T07:22:17.034Z,29.55
2023-02-24T07:24:46.665Z,28.17
2023-02-24T07:27:22.656Z,35.15
2023-02-24T07:29:53.989Z,33.42
2023-02-24T07:32:23.515Z,37.65
2023-02-24T07:34:53.208Z,32.35
2023-02-24T07:37:23.619Z,37.20
2023-02-24T07:39:51.998Z,33.33
2023-02-24T07:42:20.286Z,28.58
2023-02-24T07:44:57.082Z,30.05
2023-02-24T07:47:25.208Z,28.10
2023-02-24T07:49:55.628Z,27.27
2023-02-24T07:52:23.889Z,29.23
2023-02-24T07:54:52.109Z,38.70
2023-02-24T07:57:20.596Z,37.80
2023-02-24T07:59:48.772Z,36.67
2023-02-24T08:02:18.761Z,39.13
2023-02-24T08:04:50.611Z,39.22
2023-02-24T08:07:25.174Z,39.92
2023-02-24T08:10:24.278Z,38.55
2023-02-24T08:12:57.371Z,36.35
2023-02-24T08:15:34.268Z,34.45
2023-02-24T08:18:04.610Z,32.10
2023-02-24T08:20:52.038Z,33.15
2023-02-24T08:23:23.741Z,32.42
2023-02-24T08:25:53.857Z,31.17
2023-02-24T08:28:27.015Z,29.98
2023-02-24T08:30:55.520Z,30.02
2023-02-24T08:33:30.154Z,27.83
2023-02-24T08:36:02.405Z,28.42
2023-02-24T08:38:41.921Z,27.65
2023-02-24T08:41:18.535Z,24.92
2023-02-24T08:43:47.631Z,26.88
2023-02-24T08:46:26.174Z,21.35
2023-02-24T08:49:01.156Z,19.73
2023-02-24T08:51:31.143Z,19.20
2023-02-24T08:54:02.263Z,19.48
2023-02-24T08:56:34.703Z,19.33
2023-02-24T08:59:06.861Z,22.10
2023-02-24T09:01:37.655Z,19.20
2023-02-24T09:04:10.503Z,19.23
2023-02-24T09:06:44.181Z,18.70
2023-02-24T09:09:22.801Z,20.83
2023-02-24T09:11:56.553Z,21.13
2023-02-24T09:14:28.796Z,18.88
2023-02-24T09:17:06.516Z,19.48
2023-02-24T09:19:58.356Z,17.33
2023-02-24T09:22:57.526Z,18.00
2023-02-24T09:25:40.691Z,15.20
2023-02-24T09:28:11.129Z,18.35
2023-02-24T09:30:51.585Z,17.10
2023-02-24T09:33:23.200Z,16.30
2023-02-24T09:36:03.441Z,17.08
2023-02-24T09:39:01.270Z,17.73
2023-02-24T09:41:54.028Z,17.45
2023-02-24T09:44:27.788Z,16.20
2023-02-24T09:47:09.402Z,20.38
2023-02-24T09:49:47.939Z,20.35
2023-02-24T09:52:19.926Z,21.55
2023-02-24T09:55:13.270Z,22.67
2023-02-24T09:58:06.628Z,24.20
2023-02-24T10:00:44.170Z,25.35
2023-02-24T10:03:41.724Z,23.95
2023-02-24T10:06:21.016Z,22.90
2023-02-24T10:08:55.736Z,20.63
2023-02-24T10:11:33.054Z,24.80
2023-02-24T10:14:05.586Z,24.48
2023-02-24T10:16:42.618Z,23.35
2023-02-24T10:19:24.478Z,26.42
2023-02-24T10:22:03.311Z,25.02
2023-02-24T10:24:38.747Z,24.48
2023-02-24T10:27:17.315Z,24.67
2023-02-24T10:30:04.989Z,26.83
2023-02-24T10:32:47.395Z,26.55
2023-02-24T10:35:18.905Z,27.83
2023-02-24T10:37:49.238Z,26.02
2023-02-24T10:40:40.700Z,25.25
2023-02-24T10:43:10.750Z,28.33
2023-02-24T10:45:45.384Z,28.35
2023-02-24T10:48:40.169Z,27.17
2023-02-24T10:51:19.201Z,27.48
2023-02-24T10:54:09.754Z,28.83
2023-02-24T10:56:44.956Z,27.40
2023-02-24T10:59:32.842Z,28.42
2023-02-24T11:02:07.017Z,27.77
2023-02-24T11:05:04.722Z,26.85
2023-02-24T11:07:45.279Z,28.33
2023-02-24T11:10:26.116Z,28.17
2023-02-24T11:13:15.593Z,30.05
2023-02-24T11:16:20.443Z,29.05
2023-02-24T11:18:52.787Z,28.65
2023-02-24T11:21:23.973Z,27.30
2023-02-24T11:23:55.863Z,30.52
2023-02-24T11:26:27.245Z,29.52
2023-02-24T11:29:15.401Z,29.30
2023-02-24T11:32:01.846Z,27.50
2023-02-24T11:34:38.458Z,29.40
2023-02-24T11:37:17.848Z,27.80
2023-02-24T11:39:54.198Z,26.63
2023-02-24T11:42:27.765Z,27.70
2023-02-24T11:45:03.233Z,27.13
2023-02-24T11:47:37.974Z,25.40
2023-02-24T11:50:21.672Z,28.10
2023-02-24T11:52:53.622Z,29.77
2023-02-24T11:55:29.873Z,28.85
2023-02-24T11:58:01.445Z,25.25
2023-02-24T12:00:34.678Z,23.08
2023-02-24T12:03:09.851Z,20.17
2023-02-24T12:05:42.374Z,21.17
2023-02-24T12:08:17.243Z,19.83
2023-02-24T12:10:49.703Z,21.80
2023-02-24T12:13:24.814Z,17.83
2023-02-24T12:16:01.184Z,16.88
2023-02-24T12:18:35.010Z,16.85
2023-02-24T12:21:08.774Z,15.25
2023-02-24T12:23:39.354Z,17.25
2023-02-24T12:26:19.385Z,15.65
2023-02-24T12:29:22.060Z,18.17
2023-02-24T12:31:57.757Z,15.98
2023-02-24T12:34:43.661Z,18.88
2023-02-24T12:37:30.665Z,14.95
2023-02-24T12:40:12.822Z,14.38
2023-02-24T12:42:48.033Z,15.27
2023-02-24T12:45:19.961Z,15.00
2023-02-24T12:48:05.093Z,15.32
2023-02-24T12:50:46.669Z,16.80
2023-02-24T12:53:23.702Z,18.60
2023-02-24T12:56:04.365Z,15.05
2023-02-24T12:58:35.227Z,14.45
2023-02-24T13:01:13.710Z,16.00
2023-02-24T13:04:00.948Z,17.13
2023-02-24T13:06:39.101Z,16.00
2023-02-24T13:09:15.473Z,15.98
2023-02-24T13:11:48.032Z,15.38
2023-02-24T13:14:25.352Z,15.20
2023-02-24T13:17:05.263Z,15.65
2023-02-24T13:19:34.827Z,17.08
2023-02-24T13:22:08.832Z,17.63
2023-02-24T13:24:37.647Z,17.73
2023-02-24T13:27:08.016Z,17.92
2023-02-24T13:29:46.988Z,18.80
2023-02-24T13:32:41.941Z,20.08
2023-02-24T13:35:33.904Z,16.33
2023-02-24T13:38:11.703Z,16.50
2023-02-24T13:40:40.115Z,15.73
2023-02-24T13:43:24.616Z,17.58
2023-02-24T13:45:59.794Z,14.90
2023-02-24T13:48:51.958Z,14.93
2023-02-24T13:51:47.636Z,14.50
2023-02-24T13:54:41.568Z,14.63
2023-02-24T13:57:33.538Z,14.35
2023-02-24T14:00:11.538Z,14.80
2023-02-24T14:02:44.714Z,14.32
2023-02-24T14:05:23.069Z,14.35
2023-02-24T14:07:54.761Z,14.07
2023-02-24T14:10:25.416Z,15.10
2023-02-24T14:13:07.452Z,13.82
2023-02-24T14:15:36.053Z,13.63
2023-02-24T14:18:06.778Z,15.15
2023-02-24T14:20:37.702Z,14.75
2023-02-24T14:23:22.723Z,13.52
2023-02-24T14:25:56.116Z,14.65
2023-02-24T14:28:28.288Z,14.55
2023-02-24T14:30:59.320Z,12.50
2023-02-24T14:33:31.541Z,13.68
2023-02-24T14:36:01.251Z,11.63
2023-02-24T14:38:37.058Z,13.60
2023-02-24T14:41:08.067Z,14.48
2023-02-24T14:43:42.930Z,12.95
2023-02-24T14:46:11.118Z,14.15
2023-02-24T14:48:39.330Z,15.25
2023-02-24T14:51:12.202Z,13.77
2023-02-24T14:53:50.511Z,13.82
2023-02-24T14:56:20.867Z,13.23
2023-02-24T14:58:52.769Z,13.05
2023-02-24T15:01:31.756Z,12.65
2023-02-24T15:04:11.924Z,13.23
2023-02-24T15:06:43.598Z,13.70
2023-02-24T15:09:21.142Z,14.25
2023-02-24T15:11:56.211Z,15.48
2023-02-24T15:14:26.222Z,13.60
2023-02-24T15:16:57.497Z,13.38
2023-02-24T15:19:33.067Z,17.02
2023-02-24T15:22:01.170Z,14.98
2023-02-24T15:24:33.071Z,14.65
2023-02-24T15:27:03.863Z,18.05
2023-02-24T15:29:32.612Z,16.35
2023-02-24T15:32:04.717Z,18.13
2023-02-24T15:34:37.235Z,14.68
2023-02-24T15:37:16.222Z,16.83
2023-02-24T15:39:46.165Z,15.82
2023-02-24T15:42:28.192Z,15.95
2023-02-24T15:44:58.324Z,16.25
2023-02-24T15:47:29.801Z,17.70
2023-02-24T15:49:57.990Z,16.15
2023-02-24T15:52:29.278Z,16.80
2023-02-24T15:55:02.692Z,18.05
2023-02-24T15:57:33.076Z,18.75
2023-02-24T16:00:01.350Z,18.92
2023-02-24T16:02:30.093Z,19.05
2023-02-24T16:04:58.344Z,18.52
2023-02-24T16:07:31.533Z,19.55
2023-02-24T16:10:02.351Z,20.98
2023-02-24T16:12:41.761Z,22.10
2023-02-24T17:15:33.755Z,16.10
2023-02-24T17:37:30.483Z,14.65
2023-02-24T17:40:50.696Z,13.80
2023-02-24T17:43:38.314Z,15.70
2023-02-24T17:50:13.922Z,16.23
2023-02-24T18:31:45.772Z,13.88
2023-02-24T18:57:34.384Z,15.50
2023-02-24T19:30:04.054Z,14.70
2023-02-24T19:35:53.308Z,15.65
2023-02-24T19:38:24.087Z,17.30
2023-02-24T20:54:33.377Z,17.27
2023-02-24T20:57:03.466Z,18.20
2023-02-24T20:59:34.505Z,20.00
2023-02-24T21:02:06.188Z,15.70
2023-02-24T21:04:37.350Z,17.83
2023-02-24T21:07:08.783Z,19.70
2023-02-24T21:09:40.865Z,18.48
2023-02-24T21:12:12.068Z,18.77
2023-02-24T21:14:44.338Z,17.25
2023-02-24T21:17:15.899Z,14.95
2023-02-24T21:19:46.729Z,6.63
2023-02-24T21:22:17.083Z,6.45
2023-02-24T21:24:49.351Z,5.10
2023-02-24T21:27:20.944Z,4.32
2023-02-24T21:29:52.240Z,6.28
2023-02-24T21:32:23.558Z,6.10
2023-02-24T21:34:54.665Z,6.68
2023-02-24T21:37:25.555Z,6.55
2023-02-24T21:39:59.105Z,5.70
2023-02-24T21:42:32.155Z,6.28
2023-02-24T21:45:11.658Z,5.97
2023-02-24T21:47:47.353Z,5.70
2023-02-24T21:50:25.296Z,5.10
2023-02-24T21:52:59.770Z,5.45
2023-02-24T21:55:32.541Z,5.22
2023-02-24T21:58:07.468Z,4.90
2023-02-24T22:00:42.923Z,5.45
2023-02-24T22:03:14.931Z,5.60
2023-02-24T22:05:53.429Z,4.90
2023-02-24T22:08:24.725Z,5.50
2023-02-24T22:11:03.576Z,5.35
2023-02-24T22:13:34.410Z,6.60
2023-02-24T22:16:08.568Z,5.22
2023-02-24T22:18:40.319Z,6.45
2023-02-24T22:21:17.644Z,5.88
2023-02-24T22:23:50.826Z,5.05
2023-02-24T22:26:24.285Z,5.18
2023-02-24T22:28:58.337Z,5.90
2023-02-24T22:31:33.368Z,5.20
2023-02-24T22:34:09.632Z,6.38
2023-02-24T22:36:41.076Z,5.40
2023-02-24T22:39:17.227Z,6.03
2023-02-24T22:41:54.118Z,6.25
2023-02-24T22:44:25.326Z,5.68
2023-02-24T22:46:57.927Z,6.25
2023-02-24T22:49:28.690Z,6.55
2023-02-24T22:51:59.610Z,7.15
2023-02-24T22:54:30.879Z,7.00
2023-02-24T22:57:04.414Z,5.95
2023-02-24T22:59:35.049Z,7.20
2023-02-24T23:02:06.631Z,7.10
2023-02-24T23:04:37.639Z,6.65
2023-02-24T23:07:08.370Z,7.22
2023-02-24T23:09:38.308Z,6.07
2023-02-24T23:12:11.721Z,5.95
2023-02-24T23:14:41.999Z,5.75
2023-02-24T23:17:12.802Z,6.45
2023-02-24T23:19:43.373Z,7.43
2023-02-24T23:22:12.891Z,7.47
2023-02-24T23:24:44.256Z,7.95
2023-02-24T23:27:16.666Z,7.05
2023-02-24T23:29:47.205Z,7.15
2023-02-24T23:32:17.828Z,7.47
2023-02-24T23:34:49.531Z,7.57
2023-02-24T23:37:20.982Z,6.53
2023-02-24T23:39:51.774Z,6.65
2023-02-24T23:42:24.996Z,6.88
2023-02-24T23:44:55.061Z,6.05
2023-02-24T23:47:25.757Z,7.38
2023-02-24T23:49:58.210Z,7.00
2023-02-24T23:52:29.748Z,7.22
2023-02-24T23:55:01.155Z,7.22
2023-02-24T23:57:33.123Z,8.30
